Time;durP1;ratioP1;P1;durP2;ratioP2;P2;SDS_P1;SDS_P2;PMS_P1;PMS_P2;Temp;Humidity;BMP_temperature;BMP_pressure;BME280_temperature;BME280_humidity;BME280_pressure;Samples;Min_cycle;Max_cycle;Signal;HPM_P1;HPM_P2
2023/08/31 00:01:52;;;;;;;3.50;1.70;;;;;;;17.62;73.44;100916.38;5052708;28;20489;-46
2023/08/31 00:04:18;;;;;;;5.93;1.60;;;;;;;17.78;73.08;100906.44;5056227;28;20106;-47
2023/08/31 00:06:45;;;;;;;2.30;1.60;;;;;;;17.75;72.74;100903.84;5055013;28;20487;-49
2023/08/31 00:09:11;;;;;;;3.25;1.50;;;;;;;17.77;72.63;100899.44;5054908;28;20063;-46
2023/08/31 00:11:36;;;;;;;2.63;1.20;;;;;;;17.74;72.37;100907.41;5053879;28;20033;-46
2023/08/31 00:14:02;;;;;;;3.92;1.30;;;;;;;17.77;72.20;100907.34;5054441;28;20033;-49
2023/08/31 00:16:27;;;;;;;2.90;1.35;;;;;;;17.60;71.76;100902.34;5053769;28;20549;-50
2023/08/31 00:18:56;;;;;;;4.15;1.23;;;;;;;17.59;71.42;100910.22;5054595;28;20041;-45
2023/08/31 00:21:22;;;;;;;3.40;1.20;;;;;;;17.44;71.64;100904.28;5054192;28;20033;-48
2023/08/31 00:23:48;;;;;;;3.45;1.20;;;;;;;17.52;71.46;100901.53;5054207;28;20403;-51
2023/08/31 00:26:14;;;;;;;2.42;1.00;;;;;;;17.51;70.95;100897.16;5054752;28;20049;-51
2023/08/31 00:28:42;;;;;;;3.08;1.00;;;;;;;17.46;70.43;100898.97;5054215;28;20041;-49
2023/08/31 00:31:08;;;;;;;3.00;1.00;;;;;;;17.57;70.32;100889.16;5055967;28;20041;-45
2023/08/31 00:33:33;;;;;;;3.72;0.80;;;;;;;17.43;70.13;100886.75;5056256;28;20037;-45
2023/08/31 00:36:03;;;;;;;2.53;0.82;;;;;;;17.42;69.85;100889.41;5055465;28;20112;-48
2023/08/31 00:38:29;;;;;;;2.35;1.02;;;;;;;17.22;70.06;100894.06;5053457;28;20045;-46
2023/08/31 00:40:54;;;;;;;1.38;0.70;;;;;;;17.12;70.07;100895.09;5054058;28;20415;-49
2023/08/31 00:43:20;;;;;;;3.92;0.93;;;;;;;17.15;69.66;100893.25;5054785;28;20041;-45
2023/08/31 00:45:50;;;;;;;2.70;0.90;;;;;;;17.15;69.57;100895.03;5051762;28;20557;-45
2023/08/31 00:48:17;;;;;;;1.20;0.88;;;;;;;16.97;69.72;100891.75;5054318;28;20169;-45
2023/08/31 00:50:47;;;;;;;2.40;0.90;;;;;;;17.03;69.29;100896.94;5054336;28;20032;-45
2023/08/31 00:53:14;;;;;;;3.35;0.82;;;;;;;17.00;69.32;100890.84;5052875;28;20048;-46
2023/08/31 00:55:40;;;;;;;1.60;0.98;;;;;;;16.97;68.96;100886.47;5054512;28;20067;-48
2023/08/31 00:58:07;;;;;;;1.85;0.88;;;;;;;16.95;69.27;100895.31;5054758;28;20403;-49
2023/08/31 01:01:04;;;;;;;3.47;0.80;;;;;;;16.82;69.84;100893.69;5055500;28;20045;-44
2023/08/31 01:03:29;;;;;;;3.13;0.90;;;;;;;16.85;69.53;100891.03;5045648;28;20036;-46
2023/08/31 01:06:08;;;;;;;2.38;0.90;;;;;;;16.78;69.93;100889.34;5054072;28;20048;-45
2023/08/31 01:08:43;;;;;;;3.25;1.00;;;;;;;16.79;69.93;100889.34;5053730;28;20033;-46
2023/08/31 01:11:34;;;;;;;2.22;1.00;;;;;;;16.88;70.17;100891.00;5062834;28;20040;-45
2023/08/31 01:14:14;;;;;;;2.42;0.90;;;;;;;16.83;70.91;100898.09;5073407;28;20036;-44
2023/08/31 01:16:43;;;;;;;1.80;1.00;;;;;;;16.80;71.66;100898.97;5074030;28;20162;-48
2023/08/31 01:19:32;;;;;;;1.35;0.80;;;;;;;16.60;72.36;100922.88;5074694;28;20037;-47
2023/08/31 01:22:03;;;;;;;4.20;1.10;;;;;;;16.40;73.88;100937.13;5074787;28;20079;-44
2023/08/31 01:24:30;;;;;;;4.70;1.20;;;;;;;16.72;73.49;100927.16;5074165;28;20039;-48
2023/08/31 01:26:55;;;;;;;7.18;1.15;;;;;;;16.81;73.24;100927.06;5075323;28;20043;-48
2023/08/31 01:29:21;;;;;;;4.45;1.00;;;;;;;16.74;74.02;100922.75;5073240;28;20033;-50
2023/08/31 01:31:46;;;;;;;3.70;0.90;;;;;;;16.87;73.12;100918.22;5073836;28;20055;-47
2023/08/31 01:34:11;;;;;;;1.88;0.90;;;;;;;16.84;73.20;100915.59;5073534;28;20580;-48
2023/08/31 01:36:42;;;;;;;2.72;1.08;;;;;;;16.91;73.03;100909.38;5072924;28;20517;-45
2023/08/31 01:39:17;;;;;;;3.25;1.00;;;;;;;16.95;72.92;100901.44;5073388;28;20033;-46
2023/08/31 01:41:48;;;;;;;1.98;1.00;;;;;;;16.95;72.76;100904.06;5072789;28;20063;-44
2023/08/31 01:44:17;;;;;;;1.77;0.80;;;;;;;16.90;72.29;100895.34;5074744;28;20044;-45
2023/08/31 01:46:46;;;;;;;3.40;0.93;;;;;;;16.85;72.75;100902.41;5073100;28;20056;-45
2023/08/31 01:49:11;;;;;;;3.28;0.90;;;;;;;16.81;72.96;100892.81;5073758;28;20040;-46
2023/08/31 01:51:37;;;;;;;1.85;0.93;;;;;;;16.80;72.99;100901.63;5073314;28;20037;-44
2023/08/31 01:54:03;;;;;;;2.33;0.98;;;;;;;16.78;73.01;100899.88;5074081;28;20663;-49
2023/08/31 01:56:28;;;;;;;3.65;1.05;;;;;;;16.71;73.17;100906.97;5071808;28;20037;-47
2023/08/31 01:58:54;;;;;;;2.00;1.00;;;;;;;16.69;73.87;100900.00;5072407;28;20040;-48
2023/08/31 02:01:19;;;;;;;1.80;1.05;;;;;;;16.71;73.69;100904.34;5072491;28;20043;-49
2023/08/31 02:03:44;;;;;;;2.30;0.98;;;;;;;16.74;73.89;100904.31;5072168;28;20024;-52
2023/08/31 02:06:10;;;;;;;2.55;0.93;;;;;;;16.75;74.03;100899.91;5049817;22;20054;-80
2023/08/31 02:08:35;;;;;;;3.55;1.00;;;;;;;16.69;74.12;100906.13;5017566;28;20046;-81
2023/08/31 02:11:07;;;;;;;3.85;1.20;;;;;;;16.34;76.70;100900.34;5020571;28;20056;-80
2023/08/31 02:13:32;;;;;;;1.90;1.10;;;;;;;16.61;75.47;100905.34;5024221;28;20507;-82
2023/08/31 02:15:58;;;;;;;3.95;1.20;;;;;;;16.67;75.15;100905.28;5022040;28;20097;-81
2023/08/31 02:18:26;;;;;;;3.55;1.20;;;;;;;16.66;74.75;100903.53;5022563;28;20041;-81
2023/08/31 02:20:54;;;;;;;5.07;1.33;;;;;;;16.49;75.69;100903.66;5022498;28;20034;-81
2023/08/31 02:23:20;;;;;;;4.18;1.73;;;;;;;16.60;75.15;100901.81;5021249;28;20080;-81
2023/08/31 02:25:45;;;;;;;2.30;1.40;;;;;;;16.62;74.97;100901.81;5019990;28;20105;-81
2023/08/31 02:28:11;;;;;;;3.10;1.50;;;;;;;16.46;75.60;100910.75;5021439;28;20030;-82
2023/08/31 02:30:37;;;;;;;3.10;1.50;;;;;;;16.50;75.67;100902.78;5018236;28;20030;-82
2023/08/31 02:33:03;;;;;;;3.33;1.80;;;;;;;16.58;75.17;100897.47;5019205;28;20084;-81
2023/08/31 02:35:28;;;;;;;5.05;1.58;;;;;;;16.56;75.16;100896.59;5018390;28;20046;-82
2023/08/31 02:37:59;;;;;;;3.13;1.88;;;;;;;16.49;75.23;100900.16;5020443;28;20049;-82
2023/08/31 02:40:25;;;;;;;2.95;1.90;;;;;;;16.45;75.71;100899.34;5018739;28;20072;-82
2023/08/31 02:42:53;;;;;;;4.68;2.10;;;;;;;16.30;76.59;100909.13;5027817;28;20041;-81
2023/08/31 02:45:22;;;;;;;3.10;2.00;;;;;;;16.31;76.83;100905.63;5020016;28;20038;-81
2023/08/31 02:47:49;;;;;;;4.72;2.17;;;;;;;16.21;77.93;100907.47;5020344;28;20050;-81
2023/08/31 02:50:14;;;;;;;3.50;2.25;;;;;;;16.38;77.05;100902.91;5021589;28;20045;-81
2023/08/31 02:52:40;;;;;;;3.75;2.00;;;;;;;16.45;76.49;100903.72;5021763;28;20081;-81
2023/08/31 02:55:10;;;;;;;5.13;2.25;;;;;;;16.39;76.47;100902.03;5024386;28;20042;-82
2023/08/31 02:57:35;;;;;;;3.22;2.10;;;;;;;16.42;75.81;100899.34;5026426;28;20482;-80
2023/08/31 03:00:08;;;;;;;3.55;2.25;;;;;;;16.38;75.92;100902.91;5027222;28;20057;-82
2023/08/31 03:02:34;;;;;;;6.72;2.30;;;;;;;16.33;76.14;100901.22;5026765;28;20049;-81
2023/08/31 03:05:02;;;;;;;3.55;2.15;;;;;;;16.40;75.35;100903.78;5021639;28;20038;-80
2023/08/31 03:07:28;;;;;;;5.30;2.28;;;;;;;16.33;75.46;100893.31;5019831;28;20041;-82
2023/08/31 03:09:56;;;;;;;4.28;2.10;;;;;;;16.32;75.04;100888.94;5019924;28;20042;-82
2023/08/31 03:12:21;;;;;;;3.83;1.90;;;;;;;16.28;75.33;100888.13;5033876;28;20026;-81
2023/08/31 03:14:48;;;;;;;4.97;1.98;;;;;;;16.20;75.56;100888.19;5017819;28;20044;-82
2023/08/31 03:17:19;;;;;;;7.82;2.08;;;;;;;16.16;76.21;100882.97;5017671;28;20045;-81
2023/08/31 03:19:47;;;;;;;4.50;1.80;;;;;;;16.18;76.21;100889.06;5016596;28;20038;-81
2023/08/31 03:22:13;;;;;;;3.92;1.50;;;;;;;16.26;75.30;100889.88;5017265;28;20034;-84
2023/08/31 03:24:44;;;;;;;6.07;1.63;;;;;;;16.06;76.90;100887.44;5015653;28;20048;-80
2023/08/31 03:27:16;;;;;;;3.35;1.50;;;;;;;16.21;75.72;100891.69;5014851;28;20044;-81
2023/08/31 03:29:41;;;;;;;3.30;1.60;;;;;;;16.15;76.00;100895.25;5016559;28;20034;-81
2023/08/31 03:32:07;;;;;;;3.63;1.30;;;;;;;16.20;75.25;100901.34;5014862;28;20380;-81
2023/08/31 03:34:32;;;;;;;4.40;1.40;;;;;;;16.23;75.29;100889.91;5013729;28;20046;-82
2023/08/31 03:37:01;;;;;;;3.10;1.40;;;;;;;16.17;75.93;100901.34;5014146;28;20523;-81
2023/08/31 03:39:32;;;;;;;4.85;1.60;;;;;;;16.21;75.86;100900.47;5013362;28;20038;-81
2023/08/31 03:41:58;;;;;;;6.70;1.63;;;;;;;16.20;75.96;100900.47;5011920;28;20445;-81
2023/08/31 03:44:24;;;;;;;4.22;1.50;;;;;;;16.17;76.32;100896.09;5015710;28;20068;-81
2023/08/31 03:46:53;;;;;;;7.18;1.73;;;;;;;16.17;76.13;100905.72;5014056;28;20465;-81
2023/08/31 03:49:18;;;;;;;2.90;1.48;;;;;;;16.21;75.90;100899.59;5015073;28;20054;-81
2023/08/31 03:51:44;;;;;;;2.53;1.40;;;;;;;16.24;75.64;100902.16;5015470;28;20034;-81
2023/08/31 03:54:09;;;;;;;4.47;1.33;;;;;;;16.20;75.81;100903.97;5016167;28;20046;-81
2023/08/31 03:56:37;;;;;;;4.88;1.42;;;;;;;16.26;75.56;100904.78;5015736;28;20034;-82
2023/08/31 03:59:05;;;;;;;6.00;1.67;;;;;;;16.26;76.29;100907.41;5015940;28;20038;-79
2023/08/31 04:01:31;;;;;;;4.95;1.33;;;;;;;16.23;76.30;100900.41;5013715;28;20523;-79
2023/08/31 04:03:59;;;;;;;2.90;1.50;;;;;;;16.27;76.29;100907.41;5015678;28;20152;-81
2023/08/31 04:06:25;;;;;;;2.97;1.30;;;;;;;16.36;76.07;100903.81;5016012;28;20038;-79
2023/08/31 04:08:50;;;;;;;6.63;1.40;;;;;;;16.40;76.16;100909.03;5015052;28;20041;-81
2023/08/31 04:11:16;;;;;;;4.90;1.40;;;;;;;16.47;76.27;100912.47;5012751;28;20041;-72
2023/08/31 04:13:41;;;;;;;6.72;1.40;;;;;;;16.47;76.63;100912.47;5011583;28;20053;-73
2023/08/31 04:16:07;;;;;;;4.72;1.35;;;;;;;16.63;76.44;100914.09;5014184;28;20034;-73
2023/08/31 04:18:32;;;;;;;5.50;2.05;;;;;;;16.57;77.38;100920.25;5015176;28;20045;-72
2023/08/31 04:21:03;;;;;;;3.05;1.10;;;;;;;16.74;77.35;100928.00;5015941;28;20042;-75
2023/08/31 04:23:29;;;;;;;4.25;1.20;;;;;;;16.86;76.80;100924.38;5028336;28;20045;-73
2023/08/31 04:25:57;;;;;;;3.35;1.30;;;;;;;16.88;76.61;100923.47;5011729;28;20037;-73
2023/08/31 04:28:23;;;;;;;5.95;1.30;;;;;;;16.91;76.47;100928.69;5011800;28;20030;-73
2023/08/31 04:30:49;;;;;;;4.78;1.25;;;;;;;16.91;76.45;100923.41;5011406;28;20069;-73
2023/08/31 04:33:14;;;;;;;3.85;1.25;;;;;;;16.94;76.03;100928.66;5012791;28;20065;-74
2023/08/31 04:35:42;;;;;;;3.40;1.10;;;;;;;16.96;75.91;100931.25;5010047;28;20456;-74
2023/08/31 04:38:08;;;;;;;3.90;1.30;;;;;;;16.93;75.58;100942.72;5012505;28;20461;-74
2023/08/31 04:40:43;;;;;;;3.67;1.35;;;;;;;16.90;75.51;100933.97;5011531;28;20042;-75
2023/08/31 04:43:08;;;;;;;4.40;1.20;;;;;;;16.94;75.68;100933.06;5012864;28;20041;-75
2023/08/31 04:45:34;;;;;;;4.53;1.27;;;;;;;16.90;76.13;100947.13;5010429;28;20339;-74
2023/08/31 04:47:59;;;;;;;2.85;1.20;;;;;;;16.84;76.40;100947.19;5012159;28;20045;-75
2023/08/31 04:50:25;;;;;;;5.88;1.45;;;;;;;17.03;76.16;100951.38;5011959;28;20046;-75
2023/08/31 04:52:51;;;;;;;5.28;1.20;;;;;;;17.12;76.27;100951.28;5010209;28;20049;-75
2023/08/31 04:55:16;;;;;;;6.43;1.30;;;;;;;17.04;76.69;100945.22;5011994;28;20560;-75
2023/08/31 04:57:44;;;;;;;5.80;1.38;;;;;;;16.92;77.23;100961.16;5012441;28;20038;-74
2023/08/31 05:00:13;;;;;;;4.43;1.40;;;;;;;17.29;76.46;100954.56;5011006;28;20042;-74
2023/08/31 05:02:43;;;;;;;4.47;1.40;;;;;;;17.29;75.77;100956.31;5011925;28;20410;-73
2023/08/31 05:05:23;;;;;;;3.00;1.20;;;;;;;17.29;76.45;100964.22;5010775;28;20041;-75
2023/08/31 05:07:48;;;;;;;2.65;1.10;;;;;;;17.29;76.48;100969.50;5012012;28;20049;-74
2023/08/31 05:10:17;;;;;;;5.28;1.40;;;;;;;17.51;75.72;100964.81;5007615;28;20056;-75
2023/08/31 05:12:42;;;;;;;2.85;1.00;;;;;;;17.64;75.54;100963.78;5019861;28;20095;-74
2023/08/31 05:15:09;;;;;;;5.05;1.38;;;;;;;17.64;75.41;100969.94;5011388;28;20124;-73
2023/08/31 05:17:35;;;;;;;4.65;1.10;;;;;;;17.67;75.29;100969.91;5011422;28;20597;-71
2023/08/31 05:20:00;;;;;;;4.75;1.30;;;;;;;17.65;75.41;100974.31;5011808;28;20034;-72
2023/08/31 05:22:25;;;;;;;3.28;1.40;;;;;;;17.57;75.42;100977.91;5012547;28;20052;-71
2023/08/31 05:25:56;;;;;;;3.78;1.30;;;;;;;17.70;75.39;100977.75;5001705;28;20049;-80
2023/08/31 05:28:43;;;;;;;4.70;1.27;;;;;;;17.72;75.00;100973.34;4927179;29;20039;-79
2023/08/31 05:31:31;;;;;;;5.82;1.38;;;;;;;17.68;75.10;100976.94;4938823;29;20575;-79
2023/08/31 05:34:18;;;;;;;3.30;1.23;;;;;;;17.52;75.51;100975.34;4994228;28;20069;-82
2023/08/31 05:36:48;;;;;;;4.57;1.30;;;;;;;17.69;75.35;100983.03;4994825;28;20035;-80
2023/08/31 05:39:26;;;;;;;4.55;1.10;;;;;;;17.77;75.17;100979.41;4984615;28;20034;-79
2023/08/31 05:41:54;;;;;;;4.85;1.40;;;;;;;17.67;75.16;100993.63;4989337;28;20038;-80
2023/08/31 05:44:20;;;;;;;3.00;0.90;;;;;;;17.87;74.46;100987.22;4972947;28;20502;-78
2023/08/31 05:46:48;;;;;;;3.25;1.00;;;;;;;17.60;74.27;100996.34;4993406;28;20096;-78
2023/08/31 05:49:17;;;;;;;4.00;1.35;;;;;;;17.81;74.15;100998.69;5012318;28;20049;-78
2023/08/31 05:51:43;;;;;;;4.20;1.15;;;;;;;17.76;73.12;100998.75;5011665;28;20523;-78
2023/08/31 05:54:20;;;;;;;4.82;1.77;;;;;;;17.80;72.86;100999.63;5003762;28;20041;-78
2023/08/31 05:56:47;;;;;;;5.60;1.25;;;;;;;17.96;72.09;101002.88;5011202;28;20440;-78
2023/08/31 05:59:22;;;;;;;3.75;1.10;;;;;;;17.82;72.20;100998.69;5010988;28;20036;-79
2023/08/31 06:01:48;;;;;;;3.67;1.00;;;;;;;17.94;71.62;101004.66;5019988;28;20042;-80
2023/08/31 06:04:13;;;;;;;2.63;1.05;;;;;;;17.93;72.32;101008.22;5017435;28;20113;-79
2023/08/31 06:06:47;;;;;;;3.30;1.17;;;;;;;17.86;71.85;101009.19;5017703;28;20038;-79
2023/08/31 06:09:13;;;;;;;3.72;1.20;;;;;;;18.14;70.84;101006.13;5017435;28;20038;-79
2023/08/31 06:12:02;;;;;;;2.03;0.90;;;;;;;18.05;70.11;101010.69;5010635;28;20044;-79
2023/08/31 06:14:29;;;;;;;3.55;1.30;;;;;;;18.16;70.10;101012.25;5011455;28;20453;-80
2023/08/31 06:16:56;;;;;;;5.40;1.80;;;;;;;18.21;70.06;101017.44;5015998;28;20135;-81
2023/08/31 06:19:22;;;;;;;3.42;1.25;;;;;;;18.16;69.78;101019.28;5018122;28;20176;-73
2023/08/31 06:21:53;;;;;;;2.65;0.90;;;;;;;17.99;69.02;101014.25;5010396;28;20047;-75
2023/08/31 06:24:21;;;;;;;4.90;1.00;;;;;;;18.29;67.59;101012.06;5018572;28;20048;-75
2023/08/31 06:26:47;;;;;;;3.35;0.95;;;;;;;18.48;66.70;101016.16;5019477;28;20038;-73
2023/08/31 06:29:12;;;;;;;2.33;0.82;;;;;;;18.89;66.40;101024.25;5021178;28;20485;-72
2023/08/31 06:31:40;;;;;;;5.20;1.10;;;;;;;18.62;65.74;101019.44;5014187;28;20049;-73
2023/08/31 06:34:12;;;;;;;2.80;1.00;;;;;;;18.75;65.39;101015.69;5012315;28;20049;-72
2023/08/31 06:36:48;;;;;;;3.45;1.05;;;;;;;18.73;65.44;101019.25;5010729;28;20038;-74
2023/08/31 06:39:15;;;;;;;3.85;1.00;;;;;;;18.78;65.53;101023.56;5011133;28;20072;-74
2023/08/31 06:41:41;;;;;;;2.35;1.08;;;;;;;18.54;67.01;101024.81;5008255;28;20072;-75
2023/08/31 06:44:09;;;;;;;2.42;0.95;;;;;;;18.70;66.98;101028.09;5008962;28;20469;-73
2023/08/31 06:46:37;;;;;;;2.30;1.08;;;;;;;19.26;64.53;101026.19;5008036;28;20403;-74
2023/08/31 06:49:32;;;;;;;5.88;1.05;;;;;;;19.43;62.26;101032.00;5025739;28;20022;-80
2023/08/31 07:06:06;;;;;;;4.05;1.02;;;;;;;22.87;51.50;101036.78;4986005;28;20042;-79
2023/08/31 07:19:21;;;;;;;3.20;0.80;;;;;;;24.47;45.41;101035.09;4877775;29;20075;-79
2023/08/31 07:22:19;;;;;;;5.40;0.98;;;;;;;23.92;44.52;101040.88;4905084;29;20048;-78
2023/08/31 07:25:12;;;;;;;4.00;1.00;;;;;;;23.99;47.88;101042.34;4901885;29;20046;-78
2023/08/31 07:27:53;;;;;;;4.30;0.90;;;;;;;23.13;47.56;101042.00;4912438;29;20072;-78
2023/08/31 07:30:35;;;;;;;3.97;0.90;;;;;;;24.51;44.33;101039.38;4958760;28;20049;-79
2023/08/31 07:33:42;;;;;;;3.28;0.90;;;;;;;23.84;42.93;101044.72;4914065;29;20047;-79
2023/08/31 07:37:07;;;;;;;;;;;;;;;;;;;;;
2023/08/31 07:39:33;;;;;;;3.05;1.10;;;;;;;24.55;43.81;101048.97;4860182;29;20150;-74
2023/08/31 07:41:59;;;;;;;4.38;1.08;;;;;;;24.13;45.84;101056.00;4940963;28;20548;-73
2023/08/31 07:44:27;;;;;;;3.58;0.95;;;;;;;24.43;45.15;101059.28;4948908;28;20493;-73
2023/08/31 07:46:55;;;;;;;4.82;1.08;;;;;;;24.46;45.29;101048.47;4937087;28;20633;-74
2023/08/31 07:49:23;;;;;;;2.30;0.73;;;;;;;24.58;44.97;101053.28;4959557;28;20036;-74
2023/08/31 07:51:58;;;;;;;3.28;0.93;;;;;;;23.63;48.31;101066.81;4967293;28;20523;-74
2023/08/31 07:54:30;;;;;;;3.75;0.90;;;;;;;23.30;48.38;101068.88;4967997;28;20117;-73
2023/08/31 07:57:02;;;;;;;6.82;1.10;;;;;;;22.18;49.99;101070.00;4963447;28;20049;-73
2023/08/31 07:59:27;;;;;;;2.00;1.00;;;;;;;21.65;49.96;101068.97;4992470;28;20036;-73
2023/08/31 08:01:58;;;;;;;2.90;1.23;;;;;;;21.77;52.43;101081.88;5008593;28;20038;-73
2023/08/31 08:04:25;;;;;;;4.15;1.25;;;;;;;21.61;52.93;101076.13;5009277;28;20058;-71
2023/08/31 08:06:51;;;;;;;5.93;1.13;;;;;;;21.54;52.24;101077.19;5008065;28;20082;-75
2023/08/31 08:09:17;;;;;;;6.55;1.23;;;;;;;21.04;54.20;101079.41;5009610;28;20030;-76
2023/08/31 08:11:43;;;;;;;4.53;1.20;;;;;;;20.83;54.68;101085.28;5008909;28;20395;-73
2023/08/31 08:14:08;;;;;;;4.13;1.30;;;;;;;21.08;54.34;101084.66;5007552;28;20037;-74
2023/08/31 08:16:40;;;;;;;5.85;1.02;;;;;;;21.11;54.36;101092.50;5008581;28;20467;-74
2023/08/31 08:19:41;;;;;;;3.83;1.00;;;;;;;21.32;52.29;101091.97;5008213;28;20083;-75
2023/08/31 08:22:09;;;;;;;3.75;0.93;;;;;;;20.93;52.35;101100.03;4951721;28;20544;-74
2023/08/31 08:24:34;;;;;;;3.30;1.08;;;;;;;21.07;52.60;101102.34;4998231;28;20030;-74
2023/08/31 08:27:00;;;;;;;3.72;1.10;;;;;;;20.80;52.73;101114.50;5011320;28;20551;-75
2023/08/31 08:29:31;;;;;;;3.95;1.15;;;;;;;20.54;54.33;101112.50;5011512;28;20124;-74
2023/08/31 08:31:56;;;;;;;5.55;1.08;;;;;;;20.64;54.65;101113.16;5012146;28;20045;-76
2023/08/31 08:34:29;;;;;;;3.78;1.23;;;;;;;21.01;54.45;101113.09;5014291;28;20124;-73
2023/08/31 08:36:54;;;;;;;4.15;1.00;;;;;;;20.93;53.08;101112.41;5018033;28;20148;-73
2023/08/31 08:39:19;;;;;;;3.90;1.20;;;;;;;20.50;50.99;101107.31;5010537;28;20128;-74
2023/08/31 08:41:46;;;;;;;5.45;1.27;;;;;;;21.00;51.84;101106.94;5008139;28;20391;-74
2023/08/31 08:44:16;;;;;;;5.30;1.10;;;;;;;20.83;52.90;101119.75;5034015;28;20038;-73
2023/08/31 08:46:49;;;;;;;4.25;1.00;;;;;;;20.87;52.48;101126.69;5031922;28;20061;-74
2023/08/31 08:49:15;;;;;;;4.73;1.20;;;;;;;20.79;53.67;101126.03;5013917;28;20034;-73
2023/08/31 08:51:41;;;;;;;3.40;1.00;;;;;;;20.95;54.14;101114.13;4990705;28;20364;-74
2023/08/31 08:54:10;;;;;;;5.45;1.20;;;;;;;21.15;54.90;101118.97;4991560;28;20431;-74
2023/08/31 08:56:35;;;;;;;2.25;0.95;;;;;;;21.32;51.58;101131.75;4992008;28;20045;-73
2023/08/31 08:59:13;;;;;;;3.42;1.10;;;;;;;21.04;50.26;101127.13;4992829;28;20042;-73
2023/08/31 09:01:39;;;;;;;4.93;1.00;;;;;;;21.50;49.78;101133.03;4991872;28;20503;-72
2023/08/31 09:04:04;;;;;;;3.28;1.00;;;;;;;20.82;50.51;101120.66;4972661;28;20062;-73
2023/08/31 09:06:30;;;;;;;3.97;1.10;;;;;;;21.60;50.20;101135.41;4970900;28;20057;-74
2023/08/31 09:08:56;;;;;;;4.13;1.10;;;;;;;21.37;49.58;101141.34;4974180;28;20090;-72
2023/08/31 09:11:22;;;;;;;2.90;0.85;;;;;;;20.81;48.53;101133.94;4992464;28;20057;-72
2023/08/31 09:13:48;;;;;;;2.13;0.90;;;;;;;20.74;51.69;101151.75;4979815;28;20067;-74
2023/08/31 09:16:28;;;;;;;4.20;0.90;;;;;;;21.08;51.92;101141.19;4972313;28;20035;-72
2023/08/31 09:19:00;;;;;;;2.95;1.00;;;;;;;21.31;52.75;101141.50;4972955;28;20039;-72
2023/08/31 09:21:40;;;;;;;5.38;1.10;;;;;;;21.48;50.39;101145.47;4974424;28;20039;-72
2023/08/31 09:24:10;;;;;;;4.72;0.98;;;;;;;21.27;48.85;101141.63;4972683;28;20542;-72
2023/08/31 09:26:51;;;;;;;3.65;0.90;;;;;;;21.45;48.19;101142.00;4972518;28;20407;-73
2023/08/31 09:29:23;;;;;;;3.92;1.20;;;;;;;21.32;50.28;101140.59;4973044;28;20046;-72
2023/08/31 09:31:51;;;;;;;5.32;1.40;;;;;;;21.63;50.80;101147.72;4972979;28;20543;-71
2023/08/31 09:34:18;;;;;;;4.45;1.00;;;;;;;21.36;49.33;101151.97;4970590;28;20062;-72
2023/08/31 09:36:44;;;;;;;3.05;0.85;;;;;;;21.38;48.08;101144.88;4971492;28;20496;-72
2023/08/31 09:39:11;;;;;;;3.83;1.00;;;;;;;21.61;48.70;101146.88;4972114;28;20047;-73
2023/08/31 09:41:55;;;;;;;7.72;1.25;;;;;;;21.44;48.72;101147.34;4970447;28;20035;-72
2023/08/31 09:44:21;;;;;;;;;;;;;;;21.94;48.23;101151.25;4971375;28;20039;-72
2023/08/31 09:46:47;;;;;;;3.03;1.17;;;;;;;21.69;48.83;101152.84;4972589;28;19918;-72
2023/08/31 09:49:20;;;;;;;4.10;1.20;;;;;;;21.83;47.67;101148.88;4973108;28;20035;-73
2023/08/31 09:51:49;;;;;;;2.40;1.30;;;;;;;21.85;48.00;101151.50;4971632;28;20062;-72
2023/08/31 09:54:24;;;;;;;3.17;1.10;;;;;;;21.80;47.15;101146.31;4972037;28;20042;-73
2023/08/31 09:56:50;;;;;;;5.65;1.10;;;;;;;21.88;47.21;101154.09;4971899;28;20086;-72
2023/08/31 09:59:16;;;;;;;4.50;1.08;;;;;;;21.76;47.51;101151.78;4970106;28;20106;-72
2023/08/31 10:01:45;;;;;;;4.20;0.90;;;;;;;21.94;47.41;101155.69;4972014;28;20034;-72
2023/08/31 10:04:12;;;;;;;3.92;1.10;;;;;;;21.79;47.34;101157.84;4970761;28;20045;-74
2023/08/31 10:06:42;;;;;;;3.58;1.00;;;;;;;21.84;47.96;101165.69;4971075;28;20067;-72
2023/08/31 10:09:13;;;;;;;2.38;0.80;;;;;;;22.01;46.48;101167.91;4971830;28;20443;-72
2023/08/31 10:11:40;;;;;;;4.07;1.50;;;;;;;21.63;46.28;101167.16;4971604;28;20037;-72
2023/08/31 10:14:05;;;;;;;1.83;0.90;;;;;;;21.92;46.98;101166.34;4970792;28;20035;-72
2023/08/31 10:16:32;;;;;;;3.75;1.02;;;;;;;22.24;45.47;101154.81;4971291;28;20310;-73
2023/08/31 10:18:58;;;;;;;2.95;1.02;;;;;;;21.84;47.81;101171.00;4971998;28;20060;-73
2023/08/31 10:21:23;;;;;;;4.68;0.90;;;;;;;22.11;45.59;101158.75;4972054;28;20526;-73
2023/08/31 10:23:50;;;;;;;4.57;0.90;;;;;;;22.41;46.19;101165.78;4971328;28;20129;-74
2023/08/31 10:26:29;;;;;;;2.75;1.08;;;;;;;22.23;45.41;101161.91;4972962;28;20035;-74
2023/08/31 10:29:04;;;;;;;9.77;1.30;;;;;;;22.39;46.64;101166.75;4978590;28;20142;-73
2023/08/31 10:31:31;;;;;;;3.85;1.00;;;;;;;22.20;45.98;101166.47;4972385;28;20043;-74
2023/08/31 10:34:09;;;;;;;7.07;0.90;;;;;;;21.85;43.27;101173.59;4972366;28;20043;-73
2023/08/31 10:36:44;;;;;;;3.83;0.90;;;;;;;22.14;43.83;101169.28;4971432;28;20170;-75
2023/08/31 10:39:16;;;;;;;2.80;0.80;;;;;;;22.37;43.33;101177.44;4971431;28;20035;-76
2023/08/31 10:41:51;;;;;;;2.40;1.00;;;;;;;22.38;43.88;101170.34;4971427;28;20046;-74
2023/08/31 10:44:30;;;;;;;6.60;1.00;;;;;;;22.21;45.46;101169.03;4970236;28;20050;-73
2023/08/31 10:46:59;;;;;;;5.05;1.00;;;;;;;22.36;45.56;101169.50;4975988;28;20057;-73
2023/08/31 10:49:27;;;;;;;1.70;0.80;;;;;;;22.53;43.98;101165.41;4977791;28;20034;-75
2023/08/31 10:51:56;;;;;;;1.85;0.80;;;;;;;22.21;43.87;101170.81;4971481;28;20046;-73
2023/08/31 10:54:24;;;;;;;5.43;1.08;;;;;;;22.73;43.71;101164.81;4985727;28;20031;-78
2023/08/31 10:57:08;;;;;;;2.55;0.75;;;;;;;22.39;43.50;101172.06;4971529;28;20095;-73
2023/08/31 10:59:52;;;;;;;3.80;0.80;;;;;;;22.46;41.91;101174.47;4971123;28;20069;-75
2023/08/31 11:02:33;;;;;;;3.10;0.88;;;;;;;22.31;42.25;101171.44;4971325;28;20158;-73
2023/08/31 11:05:06;;;;;;;2.75;0.90;;;;;;;22.64;41.33;101171.25;4969903;28;20038;-73
2023/08/31 11:07:34;;;;;;;4.70;1.17;;;;;;;22.09;42.35;101172.06;4971379;28;20050;-74
2023/08/31 11:10:38;;;;;;;6.05;1.10;;;;;;;22.24;42.18;101171.63;4970068;28;20038;-73
2023/08/31 11:13:16;;;;;;;2.92;0.90;;;;;;;22.61;41.93;101171.38;4967679;28;20046;-73
2023/08/31 11:15:48;;;;;;;4.70;0.90;;;;;;;22.73;42.34;101167.47;4970266;28;20053;-73
2023/08/31 11:18:20;;;;;;;4.55;1.05;;;;;;;22.49;42.71;101181.50;4971237;28;20066;-74
2023/08/31 11:20:50;;;;;;;2.13;0.88;;;;;;;22.84;41.63;101175.09;4970360;28;20049;-73
2023/08/31 11:23:15;;;;;;;3.97;1.02;;;;;;;23.32;42.36;101172.59;4971149;28;20062;-75
2023/08/31 11:25:47;;;;;;;7.20;1.30;;;;;;;23.24;41.54;101175.50;4971392;28;20523;-73
2023/08/31 11:28:16;;;;;;;4.28;0.90;;;;;;;22.71;42.80;101174.59;4971205;28;20081;-74
2023/08/31 11:30:46;;;;;;;4.13;0.90;;;;;;;22.80;41.80;101166.38;4963205;28;20115;-73
2023/08/31 11:33:14;;;;;;;3.75;1.00;;;;;;;22.57;41.12;101169.69;4969899;28;20043;-73
2023/08/31 11:35:43;;;;;;;3.63;1.00;;;;;;;22.80;43.12;101181.44;4971559;28;20493;-74
2023/08/31 11:38:09;;;;;;;1.92;0.73;;;;;;;23.59;40.89;101174.31;4971886;28;20503;-73
2023/08/31 11:40:35;;;;;;;2.75;0.82;;;;;;;23.91;39.54;101166.97;4969261;28;20039;-73
2023/08/31 11:43:01;;;;;;;4.25;0.90;;;;;;;23.21;41.22;101177.41;4969372;28;20400;-74
2023/08/31 11:45:27;;;;;;;3.80;1.05;;;;;;;23.28;41.13;101171.84;4952995;28;20035;-71
2023/08/31 11:47:53;;;;;;;2.40;0.90;;;;;;;23.32;41.38;101173.44;4969004;28;20130;-72
2023/08/31 11:50:20;;;;;;;2.83;1.20;;;;;;;23.64;40.50;101171.50;4970850;28;20289;-72
2023/08/31 11:52:46;;;;;;;4.68;0.90;;;;;;;23.38;42.73;101169.72;4970413;28;20038;-73
2023/08/31 11:55:14;;;;;;;5.88;1.10;;;;;;;23.12;43.23;101170.59;4970981;28;20484;-73
2023/08/31 11:57:48;;;;;;;3.20;1.10;;;;;;;23.03;42.86;101166.47;4971668;28;20063;-73
2023/08/31 12:00:21;;;;;;;2.53;1.02;;;;;;;22.99;42.45;101172.78;4974568;28;20466;-73
2023/08/31 12:02:57;;;;;;;5.78;1.17;;;;;;;23.19;41.07;101166.81;4973547;28;20067;-73
2023/08/31 12:05:22;;;;;;;2.65;1.00;;;;;;;23.42;40.52;101168.69;4974436;28;20613;-74